Terminal Aerodrome Forecast
Issued by NWS

Home | Current Version | Previous Version | Text Only | Print | Product List | Glossary On
Versions: 1 2 3 4 5 6 7 8 9 10 11 12 13 14 15 16 17 18 19 20
000
FTUS46 KSTO 181100
TAFMHR
TAF
KMHR 181138Z 1812/1912 15005KT P6SM OVC050
      TEMPO 1813/1816 BKN030
     FM190800 14006KT 5SM -DZ BR SCT020 BKN035 OVC050=

USA.gov is the U.S. government's official web portal to all federal, state and local government web resources and services.